sensor_id;sensor_type;location;lat;lon;timestamp;P1;durP1;ratioP1;P2;durP2;ratioP2
40755;SDS011;26461;45.630;9.418;2023-02-28T00:01:13;11.43;;;4.72;;
40755;SDS011;26461;45.630;9.418;2023-02-28T00:04:24;7.35;;;3.15;;
40755;SDS011;26461;45.630;9.418;2023-02-28T00:07:34;6.43;;;2.40;;
40755;SDS011;26461;45.630;9.418;2023-02-28T00:10:45;5.93;;;3.17;;
40755;SDS011;26461;45.630;9.418;2023-02-28T00:13:50;6.38;;;3.45;;
40755;SDS011;26461;45.630;9.418;2023-02-28T00:17:00;7.15;;;4.60;;
40755;SDS011;26461;45.630;9.418;2023-02-28T00:20:11;8.15;;;3.80;;
40755;SDS011;26461;45.630;9.418;2023-02-28T00:23:21;5.28;;;2.67;;
40755;SDS011;26461;45.630;9.418;2023-02-28T00:26:31;11.30;;;6.60;;
40755;SDS011;26461;45.630;9.418;2023-02-28T00:29:41;7.90;;;3.53;;
40755;SDS011;26461;45.630;9.418;2023-02-28T00:32:51;11.27;;;4.50;;
40755;SDS011;26461;45.630;9.418;2023-02-28T00:36:05;9.68;;;5.97;;
40755;SDS011;26461;45.630;9.418;2023-02-28T00:39:17;7.63;;;3.55;;
40755;SDS011;26461;45.630;9.418;2023-02-28T00:42:26;8.95;;;4.47;;
40755;SDS011;26461;45.630;9.418;2023-02-28T00:45:36;6.90;;;4.10;;
40755;SDS011;26461;45.630;9.418;2023-02-28T00:48:46;6.15;;;2.17;;
40755;SDS011;26461;45.630;9.418;2023-02-28T00:51:56;8.40;;;2.17;;
40755;SDS011;26461;45.630;9.418;2023-02-28T00:55:06;8.27;;;3.00;;
40755;SDS011;26461;45.630;9.418;2023-02-28T00:58:16;10.02;;;3.63;;
40755;SDS011;26461;45.630;9.418;2023-02-28T01:01:26;6.60;;;3.33;;
40755;SDS011;26461;45.630;9.418;2023-02-28T01:04:36;17.15;;;7.82;;
40755;SDS011;26461;45.630;9.418;2023-02-28T01:07:46;7.32;;;2.97;;
40755;SDS011;26461;45.630;9.418;2023-02-28T01:10:56;14.50;;;6.05;;
40755;SDS011;26461;45.630;9.418;2023-02-28T01:14:06;6.10;;;2.92;;
40755;SDS011;26461;45.630;9.418;2023-02-28T01:17:17;6.10;;;2.70;;
40755;SDS011;26461;45.630;9.418;2023-02-28T01:20:26;5.93;;;3.85;;
40755;SDS011;26461;45.630;9.418;2023-02-28T01:23:36;11.38;;;2.92;;
40755;SDS011;26461;45.630;9.418;2023-02-28T01:26:47;7.97;;;2.25;;
40755;SDS011;26461;45.630;9.418;2023-02-28T01:29:58;4.50;;;1.67;;
40755;SDS011;26461;45.630;9.418;2023-02-28T01:33:07;10.13;;;3.20;;
40755;SDS011;26461;45.630;9.418;2023-02-28T01:36:19;11.25;;;3.60;;
40755;SDS011;26461;45.630;9.418;2023-02-28T01:39:32;9.60;;;4.50;;
40755;SDS011;26461;45.630;9.418;2023-02-28T01:42:42;7.30;;;3.30;;
40755;SDS011;26461;45.630;9.418;2023-02-28T01:45:52;10.48;;;3.75;;
40755;SDS011;26461;45.630;9.418;2023-02-28T01:49:13;4.93;;;2.35;;
40755;SDS011;26461;45.630;9.418;2023-02-28T01:52:21;4.93;;;3.38;;
40755;SDS011;26461;45.630;9.418;2023-02-28T01:55:31;8.45;;;4.57;;
40755;SDS011;26461;45.630;9.418;2023-02-28T01:58:41;9.68;;;5.70;;
40755;SDS011;26461;45.630;9.418;2023-02-28T02:01:51;7.65;;;1.50;;
40755;SDS011;26461;45.630;9.418;2023-02-28T02:08:18;10.02;;;6.85;;
40755;SDS011;26461;45.630;9.418;2023-02-28T02:11:31;5.80;;;3.30;;
40755;SDS011;26461;45.630;9.418;2023-02-28T02:14:48;9.40;;;2.55;;
40755;SDS011;26461;45.630;9.418;2023-02-28T02:25:49;7.60;;;3.45;;
40755;SDS011;26461;45.630;9.418;2023-02-28T02:29:28;8.40;;;2.83;;
40755;SDS011;26461;45.630;9.418;2023-02-28T02:33:02;7.13;;;4.72;;
40755;SDS011;26461;45.630;9.418;2023-02-28T02:36:29;7.88;;;3.53;;
40755;SDS011;26461;45.630;9.418;2023-02-28T02:43:06;6.40;;;3.63;;
40755;SDS011;26461;45.630;9.418;2023-02-28T02:46:24;12.68;;;3.08;;
40755;SDS011;26461;45.630;9.418;2023-02-28T02:49:38;6.93;;;3.20;;
40755;SDS011;26461;45.630;9.418;2023-02-28T02:52:54;14.43;;;6.60;;
40755;SDS011;26461;45.630;9.418;2023-02-28T02:56:08;7.47;;;3.03;;
40755;SDS011;26461;45.630;9.418;2023-02-28T02:59:20;6.78;;;2.55;;
40755;SDS011;26461;45.630;9.418;2023-02-28T03:02:34;5.50;;;2.88;;
40755;SDS011;26461;45.630;9.418;2023-02-28T03:05:48;10.35;;;6.25;;
40755;SDS011;26461;45.630;9.418;2023-02-28T03:08:59;7.85;;;3.75;;
40755;SDS011;26461;45.630;9.418;2023-02-28T03:12:11;7.47;;;3.50;;
40755;SDS011;26461;45.630;9.418;2023-02-28T03:15:24;5.80;;;5.07;;
40755;SDS011;26461;45.630;9.418;2023-02-28T03:25:53;5.07;;;3.35;;
40755;SDS011;26461;45.630;9.418;2023-02-28T03:29:34;8.65;;;3.92;;
40755;SDS011;26461;45.630;9.418;2023-02-28T03:32:59;10.45;;;2.83;;
40755;SDS011;26461;45.630;9.418;2023-02-28T03:36:18;8.27;;;4.53;;
40755;SDS011;26461;45.630;9.418;2023-02-28T03:43:09;10.98;;;4.13;;
40755;SDS011;26461;45.630;9.418;2023-02-28T03:46:25;11.07;;;5.43;;
40755;SDS011;26461;45.630;9.418;2023-02-28T03:49:49;15.00;;;5.20;;
40755;SDS011;26461;45.630;9.418;2023-02-28T03:53:02;13.65;;;7.60;;
40755;SDS011;26461;45.630;9.418;2023-02-28T03:56:34;11.73;;;5.50;;
40755;SDS011;26461;45.630;9.418;2023-02-28T03:59:56;13.77;;;3.83;;
40755;SDS011;26461;45.630;9.418;2023-02-28T04:03:16;7.25;;;4.88;;
40755;SDS011;26461;45.630;9.418;2023-02-28T04:06:26;9.90;;;4.28;;
40755;SDS011;26461;45.630;9.418;2023-02-28T04:09:36;8.00;;;3.42;;
40755;SDS011;26461;45.630;9.418;2023-02-28T04:12:46;13.93;;;3.50;;
40755;SDS011;26461;45.630;9.418;2023-02-28T04:15:56;6.65;;;3.95;;
40755;SDS011;26461;45.630;9.418;2023-02-28T04:19:06;5.70;;;3.88;;
40755;SDS011;26461;45.630;9.418;2023-02-28T04:22:18;7.03;;;6.05;;
40755;SDS011;26461;45.630;9.418;2023-02-28T04:25:29;17.50;;;5.28;;
40755;SDS011;26461;45.630;9.418;2023-02-28T04:28:39;16.98;;;7.43;;
40755;SDS011;26461;45.630;9.418;2023-02-28T04:31:49;7.32;;;4.95;;
40755;SDS011;26461;45.630;9.418;2023-02-28T04:35:00;10.02;;;5.88;;
40755;SDS011;26461;45.630;9.418;2023-02-28T04:38:09;10.70;;;5.20;;
40755;SDS011;26461;45.630;9.418;2023-02-28T04:41:20;9.23;;;2.80;;
40755;SDS011;26461;45.630;9.418;2023-02-28T04:44:31;14.98;;;6.40;;
40755;SDS011;26461;45.630;9.418;2023-02-28T04:47:41;10.35;;;3.22;;
40755;SDS011;26461;45.630;9.418;2023-02-28T04:50:51;6.43;;;4.47;;
40755;SDS011;26461;45.630;9.418;2023-02-28T04:54:01;10.70;;;4.18;;
40755;SDS011;26461;45.630;9.418;2023-02-28T04:57:11;11.80;;;4.43;;
40755;SDS011;26461;45.630;9.418;2023-02-28T05:00:15;4.40;;;3.83;;
40755;SDS011;26461;45.630;9.418;2023-02-28T05:03:26;12.23;;;5.15;;
40755;SDS011;26461;45.630;9.418;2023-02-28T05:06:31;8.65;;;4.15;;
40755;SDS011;26461;45.630;9.418;2023-02-28T05:09:42;7.45;;;3.80;;
40755;SDS011;26461;45.630;9.418;2023-02-28T05:12:52;8.13;;;2.55;;
40755;SDS011;26461;45.630;9.418;2023-02-28T05:16:02;8.23;;;4.57;;
40755;SDS011;26461;45.630;9.418;2023-02-28T05:19:12;7.57;;;3.55;;
40755;SDS011;26461;45.630;9.418;2023-02-28T05:22:22;10.32;;;4.13;;
40755;SDS011;26461;45.630;9.418;2023-02-28T05:25:32;9.88;;;4.05;;
40755;SDS011;26461;45.630;9.418;2023-02-28T05:28:43;8.38;;;5.00;;
40755;SDS011;26461;45.630;9.418;2023-02-28T05:31:52;17.50;;;5.35;;
40755;SDS011;26461;45.630;9.418;2023-02-28T05:35:02;6.40;;;2.85;;
40755;SDS011;26461;45.630;9.418;2023-02-28T05:38:13;7.25;;;4.68;;
40755;SDS011;26461;45.630;9.418;2023-02-28T05:41:23;7.90;;;5.28;;
40755;SDS011;26461;45.630;9.418;2023-02-28T05:44:33;15.13;;;7.60;;
40755;SDS011;26461;45.630;9.418;2023-02-28T05:47:43;11.60;;;6.80;;
40755;SDS011;26461;45.630;9.418;2023-02-28T05:50:52;7.03;;;5.05;;
40755;SDS011;26461;45.630;9.418;2023-02-28T05:54:02;8.15;;;2.90;;
40755;SDS011;26461;45.630;9.418;2023-02-28T05:57:12;8.55;;;6.03;;
40755;SDS011;26461;45.630;9.418;2023-02-28T06:00:22;10.43;;;3.20;;
40755;SDS011;26461;45.630;9.418;2023-02-28T06:03:33;10.57;;;4.72;;
40755;SDS011;26461;45.630;9.418;2023-02-28T06:06:43;5.55;;;4.28;;
40755;SDS011;26461;45.630;9.418;2023-02-28T06:09:57;13.15;;;6.68;;
40755;SDS011;26461;45.630;9.418;2023-02-28T06:13:07;17.17;;;7.30;;
40755;SDS011;26461;45.630;9.418;2023-02-28T06:16:17;10.45;;;6.60;;
40755;SDS011;26461;45.630;9.418;2023-02-28T06:19:27;10.15;;;7.63;;
40755;SDS011;26461;45.630;9.418;2023-02-28T06:22:38;11.55;;;8.63;;
40755;SDS011;26461;45.630;9.418;2023-02-28T06:25:47;7.28;;;4.80;;
40755;SDS011;26461;45.630;9.418;2023-02-28T06:28:59;9.48;;;7.95;;
40755;SDS011;26461;45.630;9.418;2023-02-28T06:32:09;8.80;;;8.30;;
40755;SDS011;26461;45.630;9.418;2023-02-28T06:35:19;12.77;;;6.88;;
40755;SDS011;26461;45.630;9.418;2023-02-28T06:38:29;7.63;;;6.55;;
40755;SDS011;26461;45.630;9.418;2023-02-28T06:41:39;8.50;;;6.40;;
40755;SDS011;26461;45.630;9.418;2023-02-28T06:44:49;9.05;;;7.00;;
40755;SDS011;26461;45.630;9.418;2023-02-28T06:47:59;9.05;;;6.03;;
40755;SDS011;26461;45.630;9.418;2023-02-28T06:51:14;7.18;;;5.30;;
40755;SDS011;26461;45.630;9.418;2023-02-28T06:54:25;13.15;;;6.68;;
40755;SDS011;26461;45.630;9.418;2023-02-28T06:57:36;12.27;;;9.27;;
40755;SDS011;26461;45.630;9.418;2023-02-28T07:00:41;16.38;;;6.93;;
40755;SDS011;26461;45.630;9.418;2023-02-28T07:03:51;21.77;;;9.20;;
40755;SDS011;26461;45.630;9.418;2023-02-28T07:07:01;12.57;;;7.10;;
40755;SDS011;26461;45.630;9.418;2023-02-28T07:10:11;9.55;;;9.05;;
40755;SDS011;26461;45.630;9.418;2023-02-28T07:13:22;13.23;;;9.30;;
40755;SDS011;26461;45.630;9.418;2023-02-28T07:16:32;13.95;;;7.68;;
40755;SDS011;26461;45.630;9.418;2023-02-28T07:19:41;14.68;;;8.68;;
40755;SDS011;26461;45.630;9.418;2023-02-28T07:22:51;14.30;;;7.25;;
40755;SDS011;26461;45.630;9.418;2023-02-28T07:26:06;9.05;;;7.05;;
40755;SDS011;26461;45.630;9.418;2023-02-28T07:29:15;14.93;;;5.50;;
40755;SDS011;26461;45.630;9.418;2023-02-28T07:32:25;8.70;;;4.68;;
40755;SDS011;26461;45.630;9.418;2023-02-28T07:35:35;11.68;;;9.95;;
40755;SDS011;26461;45.630;9.418;2023-02-28T07:38:46;13.52;;;9.98;;
40755;SDS011;26461;45.630;9.418;2023-02-28T07:41:58;8.98;;;5.55;;
40755;SDS011;26461;45.630;9.418;2023-02-28T07:45:11;9.80;;;7.10;;
40755;SDS011;26461;45.630;9.418;2023-02-28T07:48:21;13.93;;;5.97;;
40755;SDS011;26461;45.630;9.418;2023-02-28T07:51:31;10.75;;;6.78;;
40755;SDS011;26461;45.630;9.418;2023-02-28T07:54:42;7.68;;;7.28;;
40755;SDS011;26461;45.630;9.418;2023-02-28T07:57:52;11.73;;;4.43;;
40755;SDS011;26461;45.630;9.418;2023-02-28T08:01:06;15.00;;;9.68;;
40755;SDS011;26461;45.630;9.418;2023-02-28T08:04:17;10.38;;;8.18;;
40755;SDS011;26461;45.630;9.418;2023-02-28T08:07:22;9.32;;;7.38;;
40755;SDS011;26461;45.630;9.418;2023-02-28T08:10:33;11.20;;;6.35;;
40755;SDS011;26461;45.630;9.418;2023-02-28T08:13:43;17.88;;;12.25;;
40755;SDS011;26461;45.630;9.418;2023-02-28T08:16:53;11.20;;;8.73;;
40755;SDS011;26461;45.630;9.418;2023-02-28T08:20:03;9.45;;;8.95;;
40755;SDS011;26461;45.630;9.418;2023-02-28T08:23:13;11.63;;;9.20;;
40755;SDS011;26461;45.630;9.418;2023-02-28T08:26:24;26.13;;;11.60;;
40755;SDS011;26461;45.630;9.418;2023-02-28T08:29:33;10.15;;;9.63;;
40755;SDS011;26461;45.630;9.418;2023-02-28T08:32:45;10.73;;;8.77;;
40755;SDS011;26461;45.630;9.418;2023-02-28T08:35:55;12.30;;;5.93;;
40755;SDS011;26461;45.630;9.418;2023-02-28T08:39:02;17.20;;;12.02;;
40755;SDS011;26461;45.630;9.418;2023-02-28T08:42:12;18.75;;;11.88;;
40755;SDS011;26461;45.630;9.418;2023-02-28T08:45:22;17.98;;;12.57;;
40755;SDS011;26461;45.630;9.418;2023-02-28T08:48:33;19.90;;;10.90;;
40755;SDS011;26461;45.630;9.418;2023-02-28T08:51:44;7.57;;;6.88;;
40755;SDS011;26461;45.630;9.418;2023-02-28T08:54:54;17.40;;;8.85;;
40755;SDS011;26461;45.630;9.418;2023-02-28T08:58:04;16.48;;;10.38;;
40755;SDS011;26461;45.630;9.418;2023-02-28T09:01:27;12.88;;;6.70;;
40755;SDS011;26461;45.630;9.418;2023-02-28T09:04:37;10.85;;;8.35;;
40755;SDS011;26461;45.630;9.418;2023-02-28T09:07:47;16.55;;;7.43;;
40755;SDS011;26461;45.630;9.418;2023-02-28T09:10:57;15.32;;;8.45;;
40755;SDS011;26461;45.630;9.418;2023-02-28T09:14:08;12.18;;;9.82;;
40755;SDS011;26461;45.630;9.418;2023-02-28T09:17:18;14.48;;;13.02;;
40755;SDS011;26461;45.630;9.418;2023-02-28T09:20:28;17.58;;;11.70;;
40755;SDS011;26461;45.630;9.418;2023-02-28T09:23:38;16.02;;;8.25;;
40755;SDS011;26461;45.630;9.418;2023-02-28T09:26:49;10.60;;;6.80;;
40755;SDS011;26461;45.630;9.418;2023-02-28T09:29:58;18.35;;;10.15;;
40755;SDS011;26461;45.630;9.418;2023-02-28T09:33:03;18.13;;;12.65;;
40755;SDS011;26461;45.630;9.418;2023-02-28T09:36:08;29.80;;;11.30;;
40755;SDS011;26461;45.630;9.418;2023-02-28T09:39:17;18.75;;;10.57;;
40755;SDS011;26461;45.630;9.418;2023-02-28T09:42:30;22.52;;;9.50;;
40755;SDS011;26461;45.630;9.418;2023-02-28T09:45:44;14.63;;;8.20;;
40755;SDS011;26461;45.630;9.418;2023-02-28T09:49:05;33.50;;;15.98;;
40755;SDS011;26461;45.630;9.418;2023-02-28T09:52:21;15.90;;;14.18;;
40755;SDS011;26461;45.630;9.418;2023-02-28T09:55:42;23.05;;;12.77;;
40755;SDS011;26461;45.630;9.418;2023-02-28T10:02:45;14.20;;;13.48;;
40755;SDS011;26461;45.630;9.418;2023-02-28T10:06:17;21.88;;;11.98;;
40755;SDS011;26461;45.630;9.418;2023-02-28T10:09:32;20.42;;;10.77;;
40755;SDS011;26461;45.630;9.418;2023-02-28T10:12:45;19.95;;;12.20;;
40755;SDS011;26461;45.630;9.418;2023-02-28T10:15:58;18.33;;;10.10;;
40755;SDS011;26461;45.630;9.418;2023-02-28T10:23:02;11.15;;;8.30;;
40755;SDS011;26461;45.630;9.418;2023-02-28T10:26:36;15.48;;;11.45;;
40755;SDS011;26461;45.630;9.418;2023-02-28T10:29:50;23.00;;;11.02;;
40755;SDS011;26461;45.630;9.418;2023-02-28T10:33:02;12.48;;;7.78;;
40755;SDS011;26461;45.630;9.418;2023-02-28T10:36:14;14.40;;;8.35;;
40755;SDS011;26461;45.630;9.418;2023-02-28T10:39:38;15.93;;;10.23;;
40755;SDS011;26461;45.630;9.418;2023-02-28T10:46:16;13.18;;;10.30;;
40755;SDS011;26461;45.630;9.418;2023-02-28T10:49:34;14.68;;;13.40;;
40755;SDS011;26461;45.630;9.418;2023-02-28T10:52:42;22.42;;;13.70;;
40755;SDS011;26461;45.630;9.418;2023-02-28T10:56:00;24.42;;;13.45;;
40755;SDS011;26461;45.630;9.418;2023-02-28T10:59:26;14.73;;;8.50;;
40755;SDS011;26461;45.630;9.418;2023-02-28T11:02:37;31.02;;;12.50;;
40755;SDS011;26461;45.630;9.418;2023-02-28T11:05:47;14.75;;;10.52;;
40755;SDS011;26461;45.630;9.418;2023-02-28T11:09:03;20.42;;;7.82;;
40755;SDS011;26461;45.630;9.418;2023-02-28T11:12:22;14.32;;;10.55;;
40755;SDS011;26461;45.630;9.418;2023-02-28T11:15:37;24.67;;;8.90;;
40755;SDS011;26461;45.630;9.418;2023-02-28T11:18:52;17.70;;;9.65;;
40755;SDS011;26461;45.630;9.418;2023-02-28T11:22:04;15.45;;;10.48;;
40755;SDS011;26461;45.630;9.418;2023-02-28T11:25:25;23.20;;;10.85;;
40755;SDS011;26461;45.630;9.418;2023-02-28T11:28:40;23.85;;;10.48;;
40755;SDS011;26461;45.630;9.418;2023-02-28T11:32:01;16.92;;;11.90;;
40755;SDS011;26461;45.630;9.418;2023-02-28T11:35:31;18.40;;;14.18;;
40755;SDS011;26461;45.630;9.418;2023-02-28T11:38:45;14.43;;;10.18;;
40755;SDS011;26461;45.630;9.418;2023-02-28T11:56:38;15.48;;;8.45;;
40755;SDS011;26461;45.630;9.418;2023-02-28T12:06:38;16.25;;;8.60;;
40755;SDS011;26461;45.630;9.418;2023-02-28T12:13:15;28.80;;;11.10;;
40755;SDS011;26461;45.630;9.418;2023-02-28T12:16:41;19.80;;;13.05;;
40755;SDS011;26461;45.630;9.418;2023-02-28T12:20:02;11.27;;;7.70;;
40755;SDS011;26461;45.630;9.418;2023-02-28T12:27:11;13.68;;;9.93;;
40755;SDS011;26461;45.630;9.418;2023-02-28T12:30:24;13.27;;;9.13;;
40755;SDS011;26461;45.630;9.418;2023-02-28T12:33:39;13.50;;;9.82;;
40755;SDS011;26461;45.630;9.418;2023-02-28T12:36:53;27.70;;;15.13;;
40755;SDS011;26461;45.630;9.418;2023-02-28T12:40:16;14.95;;;12.02;;
40755;SDS011;26461;45.630;9.418;2023-02-28T12:43:32;21.80;;;13.70;;
40755;SDS011;26461;45.630;9.418;2023-02-28T12:46:49;12.95;;;9.63;;
40755;SDS011;26461;45.630;9.418;2023-02-28T12:50:05;15.45;;;7.82;;
40755;SDS011;26461;45.630;9.418;2023-02-28T12:56:57;14.05;;;12.15;;
40755;SDS011;26461;45.630;9.418;2023-02-28T13:00:18;15.50;;;7.53;;
40755;SDS011;26461;45.630;9.418;2023-02-28T13:10:51;22.35;;;11.15;;
40755;SDS011;26461;45.630;9.418;2023-02-28T13:14:05;16.30;;;9.68;;
40755;SDS011;26461;45.630;9.418;2023-02-28T13:17:27;16.42;;;10.35;;
40755;SDS011;26461;45.630;9.418;2023-02-28T13:34:12;19.23;;;10.23;;
40755;SDS011;26461;45.630;9.418;2023-02-28T13:40:30;15.95;;;9.52;;
40755;SDS011;26461;45.630;9.418;2023-02-28T13:44:06;17.38;;;12.32;;
40755;SDS011;26461;45.630;9.418;2023-02-28T13:47:28;20.38;;;11.27;;
40755;SDS011;26461;45.630;9.418;2023-02-28T13:50:46;22.65;;;15.38;;
40755;SDS011;26461;45.630;9.418;2023-02-28T13:54:01;16.48;;;10.30;;
40755;SDS011;26461;45.630;9.418;2023-02-28T14:01:00;18.42;;;11.25;;
40755;SDS011;26461;45.630;9.418;2023-02-28T14:05:13;16.98;;;10.10;;
40755;SDS011;26461;45.630;9.418;2023-02-28T14:11:31;23.73;;;11.70;;
40755;SDS011;26461;45.630;9.418;2023-02-28T14:17:53;21.50;;;12.65;;
40755;SDS011;26461;45.630;9.418;2023-02-28T14:21:24;19.00;;;12.98;;
40755;SDS011;26461;45.630;9.418;2023-02-28T14:32:01;14.90;;;12.90;;
40755;SDS011;26461;45.630;9.418;2023-02-28T14:35:22;15.18;;;10.65;;
40755;SDS011;26461;45.630;9.418;2023-02-28T14:38:58;15.60;;;8.75;;
40755;SDS011;26461;45.630;9.418;2023-02-28T14:42:33;15.48;;;9.05;;
40755;SDS011;26461;45.630;9.418;2023-02-28T14:45:49;22.30;;;11.90;;
40755;SDS011;26461;45.630;9.418;2023-02-28T14:49:01;16.00;;;11.50;;
40755;SDS011;26461;45.630;9.418;2023-02-28T14:52:14;15.63;;;8.73;;
40755;SDS011;26461;45.630;9.418;2023-02-28T14:55:29;22.42;;;11.43;;
40755;SDS011;26461;45.630;9.418;2023-02-28T14:58:41;23.77;;;12.32;;
40755;SDS011;26461;45.630;9.418;2023-02-28T15:05:32;18.17;;;10.07;;
40755;SDS011;26461;45.630;9.418;2023-02-28T15:08:43;15.00;;;8.02;;
40755;SDS011;26461;45.630;9.418;2023-02-28T15:11:54;13.43;;;10.50;;
40755;SDS011;26461;45.630;9.418;2023-02-28T15:15:05;17.70;;;9.27;;
40755;SDS011;26461;45.630;9.418;2023-02-28T15:18:22;13.88;;;10.63;;
40755;SDS011;26461;45.630;9.418;2023-02-28T15:21:34;16.60;;;9.60;;
40755;SDS011;26461;45.630;9.418;2023-02-28T15:24:49;13.38;;;8.43;;
40755;SDS011;26461;45.630;9.418;2023-02-28T15:27:56;19.88;;;10.57;;
40755;SDS011;26461;45.630;9.418;2023-02-28T15:31:17;17.77;;;10.55;;
40755;SDS011;26461;45.630;9.418;2023-02-28T15:34:41;14.02;;;9.30;;
40755;SDS011;26461;45.630;9.418;2023-02-28T15:37:56;17.27;;;8.45;;
40755;SDS011;26461;45.630;9.418;2023-02-28T15:41:21;21.90;;;14.02;;
40755;SDS011;26461;45.630;9.418;2023-02-28T15:44:37;15.15;;;12.75;;
40755;SDS011;26461;45.630;9.418;2023-02-28T15:47:46;12.98;;;7.68;;
40755;SDS011;26461;45.630;9.418;2023-02-28T15:54:21;16.40;;;7.00;;
40755;SDS011;26461;45.630;9.418;2023-02-28T15:57:33;8.88;;;6.40;;
40755;SDS011;26461;45.630;9.418;2023-02-28T16:00:43;16.52;;;9.20;;
40755;SDS011;26461;45.630;9.418;2023-02-28T16:03:59;15.18;;;7.63;;
40755;SDS011;26461;45.630;9.418;2023-02-28T16:07:12;16.85;;;9.05;;
40755;SDS011;26461;45.630;9.418;2023-02-28T16:10:23;14.82;;;6.40;;
40755;SDS011;26461;45.630;9.418;2023-02-28T16:13:36;13.95;;;5.63;;
40755;SDS011;26461;45.630;9.418;2023-02-28T16:16:47;12.95;;;10.40;;
40755;SDS011;26461;45.630;9.418;2023-02-28T16:20:04;19.92;;;6.80;;
40755;SDS011;26461;45.630;9.418;2023-02-28T16:23:21;14.63;;;7.75;;
40755;SDS011;26461;45.630;9.418;2023-02-28T16:26:31;10.95;;;7.40;;
40755;SDS011;26461;45.630;9.418;2023-02-28T16:29:43;12.32;;;7.03;;
40755;SDS011;26461;45.630;9.418;2023-02-28T16:32:54;7.72;;;5.93;;
40755;SDS011;26461;45.630;9.418;2023-02-28T16:36:05;17.17;;;9.98;;
40755;SDS011;26461;45.630;9.418;2023-02-28T16:39:18;17.65;;;11.55;;
40755;SDS011;26461;45.630;9.418;2023-02-28T16:42:31;14.57;;;6.05;;
40755;SDS011;26461;45.630;9.418;2023-02-28T16:45:41;19.70;;;7.40;;
40755;SDS011;26461;45.630;9.418;2023-02-28T16:48:52;12.55;;;5.88;;
40755;SDS011;26461;45.630;9.418;2023-02-28T16:52:02;15.73;;;8.63;;
40755;SDS011;26461;45.630;9.418;2023-02-28T16:55:12;18.77;;;7.70;;
40755;SDS011;26461;45.630;9.418;2023-02-28T16:58:21;14.80;;;8.40;;
40755;SDS011;26461;45.630;9.418;2023-02-28T17:01:34;12.85;;;7.57;;
40755;SDS011;26461;45.630;9.418;2023-02-28T17:04:45;11.30;;;6.63;;
40755;SDS011;26461;45.630;9.418;2023-02-28T17:07:54;11.63;;;6.35;;
40755;SDS011;26461;45.630;9.418;2023-02-28T17:11:04;10.18;;;5.97;;
40755;SDS011;26461;45.630;9.418;2023-02-28T17:14:15;12.65;;;7.70;;
40755;SDS011;26461;45.630;9.418;2023-02-28T17:17:25;12.15;;;8.10;;
40755;SDS011;26461;45.630;9.418;2023-02-28T17:20:35;11.27;;;5.95;;
40755;SDS011;26461;45.630;9.418;2023-02-28T17:23:45;25.70;;;9.57;;
40755;SDS011;26461;45.630;9.418;2023-02-28T17:26:50;17.63;;;10.98;;
40755;SDS011;26461;45.630;9.418;2023-02-28T17:30:00;20.40;;;10.57;;
40755;SDS011;26461;45.630;9.418;2023-02-28T17:33:10;12.30;;;6.50;;
40755;SDS011;26461;45.630;9.418;2023-02-28T17:36:21;8.10;;;7.20;;
40755;SDS011;26461;45.630;9.418;2023-02-28T17:39:33;16.33;;;9.38;;
40755;SDS011;26461;45.630;9.418;2023-02-28T17:42:43;22.38;;;9.20;;
40755;SDS011;26461;45.630;9.418;2023-02-28T17:45:53;10.98;;;9.60;;
40755;SDS011;26461;45.630;9.418;2023-02-28T17:49:03;15.38;;;8.38;;
40755;SDS011;26461;45.630;9.418;2023-02-28T17:52:13;15.82;;;8.00;;
40755;SDS011;26461;45.630;9.418;2023-02-28T17:55:23;14.10;;;9.55;;
40755;SDS011;26461;45.630;9.418;2023-02-28T17:58:33;13.38;;;9.57;;
40755;SDS011;26461;45.630;9.418;2023-02-28T18:01:38;31.77;;;16.65;;
40755;SDS011;26461;45.630;9.418;2023-02-28T18:04:43;17.63;;;14.60;;
40755;SDS011;26461;45.630;9.418;2023-02-28T18:07:53;37.72;;;25.15;;
40755;SDS011;26461;45.630;9.418;2023-02-28T18:11:03;40.17;;;25.17;;
40755;SDS011;26461;45.630;9.418;2023-02-28T18:14:13;34.88;;;24.23;;
40755;SDS011;26461;45.630;9.418;2023-02-28T18:17:24;36.33;;;27.70;;
40755;SDS011;26461;45.630;9.418;2023-02-28T18:20:34;37.83;;;24.45;;
40755;SDS011;26461;45.630;9.418;2023-02-28T18:23:44;26.70;;;18.45;;
40755;SDS011;26461;45.630;9.418;2023-02-28T18:26:58;40.60;;;20.98;;
40755;SDS011;26461;45.630;9.418;2023-02-28T18:30:08;61.75;;;20.10;;
40755;SDS011;26461;45.630;9.418;2023-02-28T18:33:19;23.80;;;18.55;;
40755;SDS011;26461;45.630;9.418;2023-02-28T18:36:29;16.10;;;11.43;;
40755;SDS011;26461;45.630;9.418;2023-02-28T18:39:39;23.77;;;20.00;;
40755;SDS011;26461;45.630;9.418;2023-02-28T18:42:49;25.77;;;16.25;;
40755;SDS011;26461;45.630;9.418;2023-02-28T18:46:12;27.35;;;15.48;;
40755;SDS011;26461;45.630;9.418;2023-02-28T18:49:23;24.75;;;20.20;;
40755;SDS011;26461;45.630;9.418;2023-02-28T18:52:28;19.50;;;14.93;;
40755;SDS011;26461;45.630;9.418;2023-02-28T18:55:39;30.85;;;14.70;;
40755;SDS011;26461;45.630;9.418;2023-02-28T18:58:49;21.88;;;15.52;;
40755;SDS011;26461;45.630;9.418;2023-02-28T19:01:59;31.88;;;19.90;;
40755;SDS011;26461;45.630;9.418;2023-02-28T19:05:09;23.02;;;18.17;;
40755;SDS011;26461;45.630;9.418;2023-02-28T19:08:15;31.45;;;18.00;;
40755;SDS011;26461;45.630;9.418;2023-02-28T19:11:20;22.38;;;13.57;;
40755;SDS011;26461;45.630;9.418;2023-02-28T19:14:25;20.27;;;17.65;;
40755;SDS011;26461;45.630;9.418;2023-02-28T19:17:35;18.80;;;15.70;;
40755;SDS011;26461;45.630;9.418;2023-02-28T19:20:40;18.45;;;15.10;;
40755;SDS011;26461;45.630;9.418;2023-02-28T19:23:50;23.13;;;14.00;;
40755;SDS011;26461;45.630;9.418;2023-02-28T19:26:56;20.10;;;12.20;;
40755;SDS011;26461;45.630;9.418;2023-02-28T19:30:05;32.75;;;17.98;;
40755;SDS011;26461;45.630;9.418;2023-02-28T19:33:16;16.80;;;12.73;;
40755;SDS011;26461;45.630;9.418;2023-02-28T19:36:26;24.33;;;13.13;;
40755;SDS011;26461;45.630;9.418;2023-02-28T19:39:36;19.00;;;14.77;;
40755;SDS011;26461;45.630;9.418;2023-02-28T19:42:49;21.33;;;12.68;;
40755;SDS011;26461;45.630;9.418;2023-02-28T19:45:54;21.30;;;15.23;;
40755;SDS011;26461;45.630;9.418;2023-02-28T19:48:59;24.10;;;14.52;;
40755;SDS011;26461;45.630;9.418;2023-02-28T19:52:09;26.77;;;14.75;;
40755;SDS011;26461;45.630;9.418;2023-02-28T19:55:20;20.33;;;14.27;;
40755;SDS011;26461;45.630;9.418;2023-02-28T19:58:30;17.95;;;12.80;;
40755;SDS011;26461;45.630;9.418;2023-02-28T20:01:40;26.95;;;14.43;;
40755;SDS011;26461;45.630;9.418;2023-02-28T20:04:49;15.98;;;12.85;;
40755;SDS011;26461;45.630;9.418;2023-02-28T20:07:59;18.08;;;10.32;;
40755;SDS011;26461;45.630;9.418;2023-02-28T20:11:13;28.05;;;14.90;;
40755;SDS011;26461;45.630;9.418;2023-02-28T20:14:24;20.92;;;14.68;;
40755;SDS011;26461;45.630;9.418;2023-02-28T20:17:34;20.58;;;15.10;;
40755;SDS011;26461;45.630;9.418;2023-02-28T20:20:44;28.95;;;20.83;;
40755;SDS011;26461;45.630;9.418;2023-02-28T20:23:54;30.50;;;20.08;;
40755;SDS011;26461;45.630;9.418;2023-02-28T20:27:04;24.63;;;17.63;;
40755;SDS011;26461;45.630;9.418;2023-02-28T20:30:14;27.58;;;15.80;;
40755;SDS011;26461;45.630;9.418;2023-02-28T20:33:24;37.70;;;24.48;;
40755;SDS011;26461;45.630;9.418;2023-02-28T20:36:34;25.45;;;16.60;;
40755;SDS011;26461;45.630;9.418;2023-02-28T20:39:44;34.13;;;22.20;;
40755;SDS011;26461;45.630;9.418;2023-02-28T20:42:54;21.73;;;20.48;;
40755;SDS011;26461;45.630;9.418;2023-02-28T20:46:05;19.92;;;16.70;;
40755;SDS011;26461;45.630;9.418;2023-02-28T20:49:14;26.60;;;18.13;;
40755;SDS011;26461;45.630;9.418;2023-02-28T20:52:24;16.10;;;14.82;;
40755;SDS011;26461;45.630;9.418;2023-02-28T20:55:34;22.60;;;19.13;;
40755;SDS011;26461;45.630;9.418;2023-02-28T20:58:45;22.73;;;18.58;;